Белуха

Карта отелей и гостиниц, располагающихся рядом с аэропортом Белуха :



Белуха Хабаровский край 53° 46' 6.96" N, 140° 22' 9.5412" E

Белуха Хабаровский край 53° 46' 6.96" N, 140° 22' 9.5412" E
Код аэродрома ИКАО: 
ZF21
Код аэродрома RU: 
ЗФ21
Координаты: 
N53.76860° E140.36932°
Превышение над уровнем моря : 
0
Основная полоса: 
14/32
Курс магнитный: 
135,2/315,2
Длина основной ВПП: 
400
Ширина основной ВПП: 
18
Покрытие основной ВПП: 
Нетвёрдое (грунт)
Тип: 
Аэродром
Освещение ВПП: 
Нет
Класс аэродрома: 
Статус: 
Недействующий
Принадлежность: 
АОН
Сайт: 
E-mail аэродрома: 
Страна: 
Россия
Регион: 
Хабаровский край
Город: 
Дополнительная информация: 
Оператор: Николаевские рыбаки-авиаторы. Облет ГВПП не производился.

Найти трансфер

С помощью этой формы Вы можете найти трансфер из аэропорта Белуха в город, аэропорт или вокзал:

Карта места

Javascript is required to view this map.

Погода в аэропортах:

Авиационная погода в Угольном

Регион: 
Погода METAR: 
UHMA 210400Z 34006MPS 9999 DRSN VCFG NSC M25/M28 Q1007 R01/60D NOSIG RMK TDZ R01/34006G07MPS END R01/35004G06MPS QFE752/1002
Время наблюдения: 
2020-02-21T04:00:00Z
Температура C: 
-25.0
Точка росы: 
-28.0
Направление ветра: 
340
Скорость ветра: 
12
Метеорологическая видимость: 
6.21
Явления погоды: 
DRSN VCFG
Условия полета: 
VFR
Аэропорт подробнее: 

Авиационная погода в Анапе

Регион: 
Погода METAR: 
URKA 210400Z 07002MPS 4700 BR BKN003 02/02 Q1016 R04/010065 TEMPO 1000 BR BKN002 BKN020CB RMK QBB090 OBST OBSC QFE758/1011
Время наблюдения: 
2020-02-21T04:00:00Z
Температура C: 
2.0
Точка росы: 
2.0
Направление ветра: 
70
Скорость ветра: 
4
Метеорологическая видимость: 
2.92
Явления погоды: 
BR
Условия полета: 
LIFR
Аэропорт подробнее: 

Авиационная погода в Калуге (Грабцево)

Регион: 
Погода METAR: 
UUBC 210400Z 00000MPS 5000 BR NSC M05/M05 Q1021 R31/120060 TEMPO 1500 BR RMK QFE749/0998
Время наблюдения: 
2020-02-21T04:00:00Z
Температура C: 
-5.0
Точка росы: 
-5.0
Направление ветра: 
0
Скорость ветра: 
0
Метеорологическая видимость: 
3.11
Явления погоды: 
BR
Условия полета: 
MVFR

Авиационная погода в Вардё

Регион: 
Погода METAR: 
ENSS 201850Z 21037G50KT 0200 +BLSN BKN026 M06/M08 Q0994 RMK WIND 500FT 21048G58KT
Время наблюдения: 
2020-02-20T18:50:00Z
Температура C: 
-6.0
Точка росы: 
-8.0
Направление ветра: 
210
Скорость ветра: 
37
Метеорологическая видимость: 
0.12
Явления погоды: 
+BLSN
Условия полета: 
LIFR